Time;durP1;ratioP1;P1;durP2;ratioP2;P2;SDS_P1;SDS_P2;PMS_P1;PMS_P2;Temp;Humidity;BMP_temperature;BMP_pressure;BME280_temperature;BME280_humidity;BME280_pressure;Samples;Min_cycle;Max_cycle;Signal;HPM_P1;HPM_P2
2023/05/19 00:02:08;;;;;;;10.87;4.83;;;9.50;99.90;;;;;;5113883;28;20199;-81
2023/05/19 00:04:36;;;;;;;8.77;4.50;;;9.50;99.90;;;;;;5113318;28;20299;-82
2023/05/19 00:07:04;;;;;;;9.83;5.00;;;9.50;99.90;;;;;;5114027;28;20208;-86
2023/05/19 00:09:33;;;;;;;12.27;4.63;;;9.50;99.90;;;;;;5117599;28;20211;-86
2023/05/19 00:12:00;;;;;;;9.07;4.67;;;9.50;99.90;;;;;;5118335;28;20199;-83
2023/05/19 00:14:28;;;;;;;10.50;4.20;;;9.50;99.90;;;;;;5117675;28;20208;-83
2023/05/19 00:16:56;;;;;;;11.63;5.20;;;9.50;99.90;;;;;;5119039;28;20195;-83
2023/05/19 00:19:24;;;;;;;12.37;4.87;;;9.50;99.90;;;;;;5117930;28;20540;-85
2023/05/19 00:21:51;;;;;;;8.20;4.13;;;9.50;99.90;;;;;;5100040;28;20195;-79
2023/05/19 00:24:18;;;;;;;9.73;4.47;;;9.50;99.90;;;;;;5118851;28;20295;-82
2023/05/19 00:26:46;;;;;;;10.23;5.07;;;9.50;99.90;;;;;;5118004;28;20200;-84
2023/05/19 00:29:17;;;;;;;15.27;4.90;;;9.50;99.90;;;;;;5117746;28;20788;-79
2023/05/19 00:31:44;;;;;;;10.77;5.20;;;9.50;99.90;;;;;;5117131;28;20623;-83
2023/05/19 00:34:11;;;;;;;13.73;4.73;;;9.50;99.90;;;;;;5117706;28;20200;-84
2023/05/19 00:36:37;;;;;;;9.67;4.97;;;9.50;99.90;;;;;;5117654;28;20283;-83
2023/05/19 00:39:04;;;;;;;14.33;5.87;;;9.50;99.90;;;;;;5117143;28;20706;-82
2023/05/19 00:41:31;;;;;;;12.17;5.23;;;9.50;99.90;;;;;;5117546;28;20224;-84
2023/05/19 00:44:00;;;;;;;10.00;4.80;;;9.40;99.90;;;;;;5116398;28;20288;-80
2023/05/19 00:46:27;;;;;;;7.53;4.43;;;9.40;99.90;;;;;;5114122;28;20223;-78
2023/05/19 00:48:53;;;;;;;10.73;4.43;;;9.40;99.90;;;;;;5095456;28;20230;-79
2023/05/19 00:51:21;;;;;;;13.07;5.43;;;9.40;99.90;;;;;;5095546;28;20231;-78
2023/05/19 00:53:50;;;;;;;7.17;4.50;;;9.30;99.90;;;;;;5095128;28;20295;-79
2023/05/19 00:56:18;;;;;;;9.60;5.17;;;9.30;99.90;;;;;;5095363;28;20196;-79
2023/05/19 00:58:45;;;;;;;10.17;5.27;;;9.30;99.90;;;;;;5094651;28;20203;-79
2023/05/19 01:01:15;;;;;;;9.33;4.60;;;9.30;99.90;;;;;;5095713;28;20195;-79
2023/05/19 01:03:45;;;;;;;6.93;4.43;;;9.20;99.90;;;;;;5095799;28;20196;-80
2023/05/19 01:06:13;;;;;;;11.17;5.60;;;9.20;99.90;;;;;;5094740;28;20208;-78
2023/05/19 01:08:40;;;;;;;7.83;4.37;;;9.20;99.90;;;;;;5095786;28;20220;-79
2023/05/19 01:11:08;;;;;;;11.63;4.40;;;9.20;99.90;;;;;;5095523;28;20211;-77
2023/05/19 01:13:36;;;;;;;12.53;5.73;;;9.10;99.90;;;;;;5104154;27;20200;-81
2023/05/19 01:16:08;;;;;;;11.23;6.10;;;9.10;99.90;;;;;;5135930;27;20187;-79
2023/05/19 01:18:47;;;;;;;8.63;5.27;;;9.00;99.90;;;;;;5111185;27;20208;-80
2023/05/19 01:21:51;;;;;;;10.60;4.83;;;9.00;99.90;;;;;;5094761;28;20533;-78
2023/05/19 01:24:33;;;;;;;5.03;4.33;;;8.90;99.90;;;;;;5095342;28;20196;-80
2023/05/19 01:27:23;;;;;;;7.53;4.87;;;8.90;99.90;;;;;;5094988;28;20193;-80
2023/05/19 01:30:17;;;;;;;9.83;5.13;;;8.90;99.90;;;;;;5095919;28;20252;-81
2023/05/19 01:32:45;;;;;;;11.70;4.87;;;8.80;99.90;;;;;;5095337;28;20213;-81
2023/05/19 01:35:15;;;;;;;8.60;4.63;;;8.70;99.90;;;;;;5094462;28;20204;-79
2023/05/19 01:37:44;;;;;;;7.60;4.63;;;8.70;99.90;;;;;;5095127;28;20189;-79
2023/05/19 01:40:11;;;;;;;6.03;4.30;;;8.70;99.90;;;;;;5109161;28;20200;-78
2023/05/19 01:42:39;;;;;;;16.47;5.40;;;8.60;99.90;;;;;;5114810;28;20200;-79
2023/05/19 01:45:10;;;;;;;9.37;4.80;;;8.60;99.90;;;;;;5115667;28;20584;-79
2023/05/19 01:47:41;;;;;;;6.03;4.37;;;8.60;99.90;;;;;;5114902;28;20233;-79
2023/05/19 01:50:09;;;;;;;8.70;4.70;;;8.50;99.90;;;;;;5097273;28;20236;-78
2023/05/19 01:52:36;;;;;;;6.33;4.40;;;8.50;99.90;;;;;;5094495;28;20208;-78
2023/05/19 01:55:03;;;;;;;9.07;4.77;;;8.50;99.90;;;;;;5094043;28;20192;-82
2023/05/19 01:57:39;;;;;;;8.87;4.73;;;8.50;99.90;;;;;;5095125;28;20192;-80
2023/05/19 02:00:14;;;;;;;7.77;4.50;;;8.50;99.90;;;;;;5094682;28;20180;-79
2023/05/19 02:02:55;;;;;;;8.60;4.93;;;8.50;99.90;;;;;;5094155;28;20542;-78
2023/05/19 02:05:28;;;;;;;6.97;4.43;;;8.50;99.90;;;;;;5093998;28;20488;-79
2023/05/19 02:08:01;;;;;;;7.53;4.83;;;8.40;99.90;;;;;;5095102;28;20878;-78
2023/05/19 02:10:30;;;;;;;6.37;4.33;;;8.40;99.90;;;;;;5114127;28;20230;-79
2023/05/19 02:13:01;;;;;;;5.87;4.70;;;8.40;99.90;;;;;;5104461;28;20200;-80
2023/05/19 02:15:34;;;;;;;5.67;4.23;;;8.40;99.90;;;;;;5094237;28;20280;-78
2023/05/19 02:18:03;;;;;;;7.53;5.07;;;8.30;99.90;;;;;;5093761;28;20283;-79
2023/05/19 02:20:31;;;;;;;11.43;5.60;;;8.30;99.90;;;;;;5093952;28;20203;-81
2023/05/19 02:22:57;;;;;;;10.43;6.00;;;8.30;99.90;;;;;;5112871;28;20212;-81
2023/05/19 02:25:24;;;;;;;11.83;5.67;;;8.30;99.90;;;;;;5113906;28;20196;-79
2023/05/19 02:27:52;;;;;;;10.53;4.80;;;8.20;99.90;;;;;;5114436;28;20222;-79
2023/05/19 02:30:19;;;;;;;11.10;5.83;;;8.10;99.90;;;;;;5112162;28;20535;-79
2023/05/19 02:32:45;;;;;;;8.60;6.27;;;8.10;99.90;;;;;;5114388;28;20218;-80
2023/05/19 02:35:14;;;;;;;12.00;6.10;;;8.10;99.90;;;;;;5110775;28;20728;-79
2023/05/19 02:37:41;;;;;;;10.57;5.70;;;8.10;99.90;;;;;;5093651;28;20200;-79
2023/05/19 02:40:09;;;;;;;10.43;5.30;;;8.00;99.90;;;;;;5101796;28;20206;-82
2023/05/19 02:42:37;;;;;;;11.47;5.57;;;8.10;99.90;;;;;;5113950;28;20596;-79
2023/05/19 02:45:04;;;;;;;6.77;5.40;;;8.00;99.90;;;;;;5113574;28;20294;-79
2023/05/19 02:47:31;;;;;;;7.57;5.03;;;8.00;99.90;;;;;;5114015;28;20236;-78
2023/05/19 02:49:58;;;;;;;9.30;5.60;;;8.00;99.90;;;;;;5113506;28;20315;-80
2023/05/19 02:52:26;;;;;;;7.80;5.10;;;8.00;99.90;;;;;;5112973;28;20208;-78
2023/05/19 02:54:53;;;;;;;10.87;5.43;;;8.00;99.90;;;;;;5113445;28;20287;-79
2023/05/19 02:57:20;;;;;;;8.30;5.77;;;8.00;99.90;;;;;;5113558;28;20206;-81
2023/05/19 02:59:47;;;;;;;9.90;5.97;;;8.00;99.90;;;;;;5113392;28;20200;-81
2023/05/19 03:02:14;;;;;;;7.47;5.07;;;8.00;99.90;;;;;;5114076;28;20545;-80
2023/05/19 03:04:41;;;;;;;11.67;6.30;;;8.00;99.90;;;;;;5105816;28;20500;-80
2023/05/19 03:07:09;;;;;;;12.37;5.97;;;8.00;99.90;;;;;;5084481;28;20284;-80
2023/05/19 03:09:38;;;;;;;12.10;6.03;;;8.00;99.90;;;;;;5093443;28;20224;-79
2023/05/19 03:12:06;;;;;;;9.53;6.27;;;8.00;99.90;;;;;;5092752;28;20196;-80
2023/05/19 03:14:33;;;;;;;9.03;5.70;;;8.00;99.90;;;;;;5092161;28;20200;-81
2023/05/19 03:17:00;;;;;;;14.00;5.63;;;8.00;99.90;;;;;;5093998;28;20275;-84
2023/05/19 03:19:27;;;;;;;9.70;6.00;;;8.00;99.90;;;;;;5112133;28;20204;-81
2023/05/19 03:21:55;;;;;;;11.57;6.77;;;8.00;99.90;;;;;;5114594;28;20199;-83
2023/05/19 03:24:22;;;;;;;8.67;6.43;;;8.00;99.90;;;;;;5099153;28;20772;-82
2023/05/19 03:26:51;;;;;;;17.17;7.03;;;8.00;99.90;;;;;;5093240;28;20232;-83
2023/05/19 03:29:17;;;;;;;10.33;6.67;;;8.00;99.90;;;;;;5101244;28;20219;-84
2023/05/19 03:31:44;;;;;;;12.33;6.13;;;8.00;99.90;;;;;;5114196;28;20202;-84
2023/05/19 03:34:11;;;;;;;8.27;5.57;;;8.00;99.90;;;;;;5104237;28;20250;-84
2023/05/19 03:36:38;;;;;;;8.93;6.17;;;8.00;99.90;;;;;;5093720;28;20224;-84
2023/05/19 03:39:05;;;;;;;9.27;6.90;;;8.00;99.90;;;;;;5093146;28;20732;-80
2023/05/19 03:41:32;;;;;;;8.20;6.17;;;8.00;99.90;;;;;;5105727;28;20230;-84
2023/05/19 03:44:00;;;;;;;9.60;5.80;;;8.00;99.90;;;;;;5113489;28;20195;-81
2023/05/19 03:46:27;;;;;;;12.07;6.50;;;8.00;99.90;;;;;;5113754;28;20188;-82
2023/05/19 03:48:54;;;;;;;10.87;6.33;;;8.00;99.90;;;;;;5113254;28;20282;-85
2023/05/19 03:51:21;;;;;;;10.40;6.50;;;7.90;99.90;;;;;;5113200;28;20325;-81
2023/05/19 03:53:48;;;;;;;7.60;5.50;;;8.00;99.90;;;;;;5105244;28;20231;-81
2023/05/19 03:56:16;;;;;;;10.47;6.23;;;7.90;99.90;;;;;;5093060;28;20782;-83
2023/05/19 03:58:45;;;;;;;8.03;5.80;;;7.90;99.90;;;;;;5093815;28;20304;-81
2023/05/19 04:01:14;;;;;;;8.90;5.87;;;7.90;99.90;;;;;;5093382;28;20246;-84
2023/05/19 04:03:40;;;;;;;10.43;6.17;;;7.90;99.90;;;;;;5110828;28;20291;-82
2023/05/19 04:06:08;;;;;;;9.93;5.67;;;7.90;99.90;;;;;;5113416;28;20202;-81
2023/05/19 04:08:35;;;;;;;10.03;6.50;;;7.90;99.90;;;;;;5113454;28;20191;-83
2023/05/19 04:11:02;;;;;;;9.97;6.80;;;7.90;99.90;;;;;;5109584;28;20213;-82
2023/05/19 04:13:28;;;;;;;9.20;6.30;;;8.00;99.90;;;;;;5092945;28;20605;-83
2023/05/19 04:15:55;;;;;;;9.20;6.50;;;8.00;99.90;;;;;;5104178;28;20204;-83
2023/05/19 04:18:24;;;;;;;11.17;6.47;;;8.00;99.90;;;;;;5110869;28;20287;-84
2023/05/19 04:20:51;;;;;;;10.47;6.27;;;8.00;99.90;;;;;;5093071;28;20294;-86
2023/05/19 04:23:18;;;;;;;13.53;6.60;;;8.00;99.90;;;;;;5092861;28;20484;-81
2023/05/19 04:25:47;;;;;;;10.50;7.00;;;8.10;99.90;;;;;;5093575;28;20215;-84
2023/05/19 04:28:14;;;;;;;11.20;6.80;;;8.10;99.90;;;;;;5092530;28;20202;-82
2023/05/19 04:30:41;;;;;;;12.37;5.93;;;8.10;99.90;;;;;;5091626;28;20248;-82
2023/05/19 04:33:09;;;;;;;8.37;5.93;;;8.10;99.90;;;;;;5091979;28;20217;-83
2023/05/19 04:35:38;;;;;;;13.40;6.90;;;8.20;99.90;;;;;;5092784;28;20209;-80
2023/05/19 04:38:05;;;;;;;11.77;6.47;;;8.20;99.90;;;;;;5091604;28;20246;-82
2023/05/19 04:40:32;;;;;;;10.50;6.83;;;8.30;99.90;;;;;;5092256;28;20197;-81
2023/05/19 04:43:00;;;;;;;12.83;7.17;;;8.30;99.90;;;;;;5111606;28;20214;-81
2023/05/19 04:45:27;;;;;;;13.20;6.67;;;8.40;99.90;;;;;;5111772;28;20200;-79
2023/05/19 04:47:56;;;;;;;11.63;7.37;;;8.40;99.90;;;;;;5112213;28;20351;-80
2023/05/19 04:50:24;;;;;;;12.23;7.80;;;8.50;99.90;;;;;;5111202;28;20240;-83
2023/05/19 04:52:52;;;;;;;17.33;7.80;;;8.50;99.90;;;;;;5107633;28;20250;-82
2023/05/19 04:55:19;;;;;;;13.53;7.70;;;8.60;99.90;;;;;;5095427;28;20204;-84
2023/05/19 04:57:45;;;;;;;15.17;7.53;;;8.60;99.90;;;;;;5095223;28;20254;-82
2023/05/19 05:00:14;;;;;;;12.67;7.47;;;8.70;99.90;;;;;;5099976;28;20291;-82
2023/05/19 05:02:41;;;;;;;15.27;6.97;;;8.80;99.90;;;;;;5115499;28;20751;-83
2023/05/19 05:05:09;;;;;;;14.47;7.43;;;8.80;99.90;;;;;;5114982;28;20261;-81
2023/05/19 05:07:36;;;;;;;11.00;7.37;;;8.90;99.90;;;;;;5110110;28;20208;-82
2023/05/19 05:10:06;;;;;;;14.30;7.57;;;9.00;99.90;;;;;;5095285;28;20228;-84
2023/05/19 05:12:34;;;;;;;13.83;7.77;;;9.10;99.90;;;;;;5095093;28;20199;-81
2023/05/19 05:15:02;;;;;;;15.57;8.43;;;9.20;99.90;;;;;;5095155;28;20615;-82
2023/05/19 05:17:29;;;;;;;13.60;7.53;;;9.20;99.90;;;;;;5095762;28;20207;-83
2023/05/19 05:19:57;;;;;;;13.63;7.60;;;9.30;99.90;;;;;;5094473;28;20193;-82
2023/05/19 05:22:24;;;;;;;15.33;7.17;;;9.40;99.90;;;;;;5113822;28;20207;-82
2023/05/19 05:24:52;;;;;;;15.67;8.43;;;9.50;99.90;;;;;;5115598;28;20200;-82
2023/05/19 05:27:20;;;;;;;11.80;7.90;;;9.70;99.90;;;;;;5114928;28;20282;-82
2023/05/19 05:29:47;;;;;;;12.83;7.83;;;9.90;99.90;;;;;;5095110;28;20209;-81
2023/05/19 05:32:16;;;;;;;14.80;8.00;;;10.20;99.90;;;;;;5094660;28;20303;-83
2023/05/19 05:34:42;;;;;;;14.07;8.17;;;10.50;99.90;;;;;;5094680;28;20265;-82
2023/05/19 05:37:09;;;;;;;13.63;8.00;;;10.80;99.90;;;;;;5086941;28;20193;-84
2023/05/19 05:39:36;;;;;;;13.87;7.53;;;11.10;99.90;;;;;;5095165;28;20207;-82
2023/05/19 05:42:03;;;;;;;16.37;8.53;;;11.30;99.90;;;;;;5094264;28;20291;-81
2023/05/19 05:44:34;;;;;;;10.13;6.83;;;11.50;99.90;;;;;;5094836;28;20200;-81
2023/05/19 05:47:01;;;;;;;12.30;6.73;;;11.70;99.90;;;;;;5102505;28;20196;-81
2023/05/19 05:49:29;;;;;;;14.67;8.23;;;11.90;99.90;;;;;;5114200;28;20235;-83
2023/05/19 05:51:57;;;;;;;12.80;6.33;;;12.20;99.90;;;;;;5114597;28;20280;-82
2023/05/19 05:54:25;;;;;;;11.63;6.53;;;12.30;99.90;;;;;;5113533;28;20316;-83
2023/05/19 05:56:52;;;;;;;13.30;6.13;;;12.60;99.90;;;;;;5114149;28;20215;-81
2023/05/19 05:59:19;;;;;;;9.87;5.70;;;12.90;99.90;;;;;;5114461;28;20202;-89
2023/05/19 06:01:47;;;;;;;13.33;5.70;;;13.10;99.90;;;;;;5114864;28;20239;-83
2023/05/19 06:04:14;;;;;;;8.90;5.17;;;13.40;99.90;;;;;;5115370;27;20253;-87
2023/05/19 06:06:41;;;;;;;9.57;5.20;;;13.70;99.90;;;;;;5115324;28;20699;-88
2023/05/19 06:09:08;;;;;;;14.83;5.27;;;13.90;99.90;;;;;;5115650;28;20188;-79
2023/05/19 06:11:35;;;;;;;10.97;5.27;;;14.20;99.90;;;;;;5115551;28;20251;-86
2023/05/19 06:14:02;;;;;;;12.97;5.03;;;14.40;99.90;;;;;;5115200;28;20200;-86
2023/05/19 06:16:29;;;;;;;11.63;5.67;;;14.60;99.90;;;;;;5115252;28;20192;-86
2023/05/19 06:19:04;;;;;;;9.93;5.37;;;14.60;99.90;;;;;;5097339;27;20203;-85
2023/05/19 06:21:31;;;;;;;10.80;5.27;;;14.90;99.90;;;;;;5133269;27;20210;-84
2023/05/19 06:23:58;;;;;;;11.52;5.28;;;15.10;99.90;;;;;;5118575;27;20200;-85
2023/05/19 06:26:25;;;;;;;8.63;4.32;;;15.20;99.90;;;;;;5124842;27;20226;-84
2023/05/19 06:28:52;;;;;;;10.55;4.45;;;15.30;99.90;;;;;;5117202;27;20269;-83
2023/05/19 06:31:19;;;;;;;9.38;5.00;;;15.30;99.90;;;;;;5117835;27;20257;-83
2023/05/19 06:33:46;;;;;;;9.53;5.40;;;15.20;99.90;;;;;;5127978;27;20306;-82
2023/05/19 06:36:14;;;;;;;13.10;5.03;;;15.30;99.90;;;;;;5109580;27;20206;-86
2023/05/19 06:38:41;;;;;;;10.03;4.87;;;15.30;99.90;;;;;;5091073;28;20258;-83
2023/05/19 06:41:08;;;;;;;10.20;4.88;;;15.30;99.90;;;;;;5095399;28;20200;-84
2023/05/19 06:43:35;;;;;;;17.42;5.60;;;15.40;99.90;;;;;;5095150;28;20215;-83
2023/05/19 06:46:02;;;;;;;11.43;5.40;;;15.30;99.90;;;;;;5114656;28;20270;-81
2023/05/19 06:48:29;;;;;;;6.87;4.40;;;15.20;99.90;;;;;;5104182;28;20204;-82
2023/05/19 06:50:56;;;;;;;11.63;5.35;;;15.10;99.90;;;;;;5097678;28;20236;-84
2023/05/19 06:53:25;;;;;;;11.40;5.25;;;15.20;99.90;;;;;;5097976;28;20192;-87
2023/05/19 06:55:52;;;;;;;10.82;5.13;;;15.40;99.90;;;;;;5115772;28;20486;-85
2023/05/19 06:58:19;;;;;;;10.43;5.00;;;15.60;99.90;;;;;;5115361;28;20516;-85
2023/05/19 07:00:46;;;;;;;11.50;5.20;;;15.60;99.90;;;;;;5113128;28;20258;-85
2023/05/19 07:03:13;;;;;;;11.70;4.60;;;15.70;99.90;;;;;;5114340;28;20680;-87
2023/05/19 07:05:39;;;;;;;9.93;5.18;;;15.90;99.90;;;;;;5115079;28;20195;-86
2023/05/19 07:08:07;;;;;;;6.80;4.60;;;15.80;99.90;;;;;;5115633;28;20631;-86
2023/05/19 07:10:35;;;;;;;12.23;4.80;;;15.90;99.90;;;;;;5114995;28;20311;-82
2023/05/19 07:13:03;;;;;;;9.32;4.68;;;16.00;99.90;;;;;;5097076;28;20208;-84
2023/05/19 07:15:30;;;;;;;13.80;5.72;;;16.20;99.90;;;;;;5093989;28;20284;-85
2023/05/19 07:17:58;;;;;;;11.52;4.95;;;16.30;99.90;;;;;;5094519;28;20457;-84
2023/05/19 07:20:25;;;;;;;9.52;4.43;;;16.40;99.90;;;;;;5094230;28;20231;-82
2023/05/19 07:22:52;;;;;;;9.40;4.85;;;16.50;99.90;;;;;;5094138;28;20210;-83
2023/05/19 07:25:19;;;;;;;9.60;4.45;;;16.90;99.90;;;;;;5094708;28;20274;-84
2023/05/19 07:27:48;;;;;;;11.85;5.55;;;16.80;99.90;;;;;;5093718;28;20197;-81
2023/05/19 07:30:15;;;;;;;11.10;4.88;;;17.00;99.90;;;;;;5101838;28;20219;-84
2023/05/19 07:32:41;;;;;;;8.23;4.55;;;17.20;99.90;;;;;;5093868;28;20235;-82
2023/05/19 07:35:08;;;;;;;10.85;5.75;;;17.20;99.90;;;;;;5110477;28;20200;-85
2023/05/19 07:37:35;;;;;;;8.85;5.32;;;17.30;99.90;;;;;;5114001;28;20200;-83
2023/05/19 07:40:03;;;;;;;10.07;5.18;;;17.50;99.90;;;;;;5113744;28;20195;-83
2023/05/19 07:42:29;;;;;;;9.68;5.28;;;17.50;99.90;;;;;;5114474;28;20709;-82
2023/05/19 07:44:58;;;;;;;12.40;4.95;;;17.70;99.90;;;;;;5114259;28;20204;-82
2023/05/19 07:47:25;;;;;;;10.07;5.30;;;18.00;99.90;;;;;;5113073;28;20224;-80
2023/05/19 07:49:52;;;;;;;8.15;5.53;;;18.10;99.90;;;;;;5104764;28;20247;-81
2023/05/19 07:52:18;;;;;;;9.07;4.55;;;18.20;99.90;;;;;;5093549;28;20596;-84
2023/05/19 07:54:46;;;;;;;8.77;4.95;;;18.30;99.90;;;;;;5092325;28;20485;-84
2023/05/19 07:57:14;;;;;;;10.63;4.88;;;18.50;99.90;;;;;;5092945;28;20221;-84
2023/05/19 07:59:40;;;;;;;10.90;4.78;;;18.70;99.90;;;;;;5102028;28;20207;-84
2023/05/19 08:02:09;;;;;;;10.05;4.82;;;18.80;99.90;;;;;;5113968;28;20191;-83
2023/05/19 08:04:36;;;;;;;11.82;5.20;;;18.80;81.30;;;;;;5113837;28;20203;-81
2023/05/19 08:07:03;;;;;;;11.18;4.75;;;18.60;35.70;;;;;;5113973;28;20211;-83
2023/05/19 08:09:30;;;;;;;13.50;5.00;;;18.80;1.00;;;;;;5112927;28;20286;-84
2023/05/19 08:11:56;;;;;;;8.27;4.25;;;18.60;1.00;;;;;;5092861;28;20319;-82
2023/05/19 08:14:23;;;;;;;10.00;4.70;;;18.50;1.00;;;;;;5093307;28;20676;-82
2023/05/19 08:16:50;;;;;;;8.48;4.22;;;18.40;1.00;;;;;;5093051;28;20731;-83
2023/05/19 08:19:19;;;;;;;8.65;4.20;;;18.60;1.00;;;;;;5096285;28;20309;-83
2023/05/19 08:21:47;;;;;;;7.57;4.20;;;18.70;1.00;;;;;;5113672;28;20192;-82
2023/05/19 08:24:14;;;;;;;8.68;4.22;;;18.70;1.00;;;;;;5105824;28;20242;-82
2023/05/19 08:26:41;;;;;;;6.65;3.50;;;19.00;1.00;;;;;;5107607;28;20287;-82
2023/05/19 08:29:07;;;;;;;9.68;3.97;;;19.00;1.00;;;;;;5115245;28;20208;-82
2023/05/19 08:31:35;;;;;;;8.23;4.03;;;19.20;1.00;;;;;;5115213;28;20282;-85
2023/05/19 08:34:02;;;;;;;12.07;4.78;;;19.30;1.00;;;;;;5111911;28;20234;-83
2023/05/19 08:36:30;;;;;;;10.70;3.88;;;19.50;1.00;;;;;;5111192;28;20329;-85
2023/05/19 08:38:57;;;;;;;8.25;3.85;;;19.30;99.90;;;;;;5114429;28;20286;-84
2023/05/19 08:41:25;;;;;;;7.18;3.30;;;19.50;99.90;;;;;;5112404;28;20200;-84
2023/05/19 08:43:52;;;;;;;5.93;3.15;;;19.70;99.90;;;;;;5114391;28;20265;-84
2023/05/19 08:46:21;;;;;;;7.43;3.47;;;19.90;1.00;;;;;;5115026;28;20210;-84
2023/05/19 08:48:51;;;;;;;6.63;3.15;;;20.00;99.90;;;;;;5111624;28;20256;-83
2023/05/19 08:51:25;;;;;;;6.20;2.70;;;19.90;1.00;;;;;;5109297;28;20228;-82
2023/05/19 08:53:59;;;;;;;8.05;3.53;;;20.20;99.90;;;;;;5112852;28;20286;-83
2023/05/19 08:56:26;;;;;;;9.63;3.78;;;20.30;99.90;;;;;;5102357;28;20772;-83
2023/05/19 08:58:55;;;;;;;9.23;3.55;;;20.20;99.90;;;;;;5094389;28;20273;-85
2023/05/19 09:01:23;;;;;;;7.85;3.40;;;20.00;99.90;;;;;;5093996;28;20561;-84
2023/05/19 09:03:50;;;;;;;6.70;3.50;;;20.20;99.90;;;;;;5104401;28;20275;-80
2023/05/19 09:06:17;;;;;;;10.25;3.55;;;20.20;99.90;;;;;;5097758;28;20231;-81
2023/05/19 09:08:45;;;;;;;8.07;3.13;;;20.50;99.90;;;;;;5087753;28;20208;-83
2023/05/19 09:11:14;;;;;;;6.53;3.28;;;20.40;99.90;;;;;;5080153;28;20270;-82
2023/05/19 09:13:41;;;;;;;9.20;3.45;;;20.30;99.90;;;;;;5105834;28;20227;-81
2023/05/19 09:16:08;;;;;;;7.28;3.33;;;20.60;99.90;;;;;;5104335;28;20235;-84
2023/05/19 09:18:38;;;;;;;8.25;3.20;;;20.60;99.90;;;;;;5107857;28;20188;-83
2023/05/19 09:21:06;;;;;;;5.80;2.95;;;20.40;99.90;;;;;;5094675;28;20196;-84
2023/05/19 09:23:34;;;;;;;9.60;2.88;;;20.40;99.90;;;;;;5098453;28;20235;-80
2023/05/19 09:26:03;;;;;;;8.98;3.15;;;20.30;99.90;;;;;;5095506;28;20195;-82
2023/05/19 09:28:33;;;;;;;7.88;3.17;;;20.40;99.90;;;;;;5096729;28;20601;-85
2023/05/19 09:31:01;;;;;;;9.73;3.17;;;20.60;99.90;;;;;;5105864;28;20223;-83
2023/05/19 09:33:29;;;;;;;6.97;3.53;;;20.80;99.90;;;;;;5095086;28;20296;-83
2023/05/19 09:35:57;;;;;;;6.22;2.72;;;20.80;99.90;;;;;;5097831;28;20216;-85
2023/05/19 09:38:26;;;;;;;7.95;2.78;;;20.60;99.90;;;;;;5098541;28;20232;-85
2023/05/19 09:40:53;;;;;;;5.55;2.45;;;20.70;99.90;;;;;;5100850;28;20202;-84
2023/05/19 09:43:21;;;;;;;6.85;2.85;;;20.60;99.90;;;;;;5108880;28;20266;-85
2023/05/19 09:45:55;;;;;;;8.65;3.33;;;20.40;99.90;;;;;;5096553;28;20607;-90
2023/05/19 09:48:22;;;;;;;5.32;2.60;;;20.70;99.90;;;;;;5083594;28;20195;-82
2023/05/19 09:50:50;;;;;;;5.40;2.72;;;20.80;99.90;;;;;;5100805;28;20319;-84
2023/05/19 09:53:17;;;;;;;4.18;2.40;;;20.50;99.90;;;;;;5102852;28;20206;-88
2023/05/19 09:55:45;;;;;;;5.00;2.35;;;20.70;99.90;;;;;;5097862;28;20199;-83
2023/05/19 09:58:17;;;;;;;9.70;2.60;;;20.80;99.90;;;;;;5103642;28;20233;-85
2023/05/19 10:00:44;;;;;;;9.20;3.08;;;20.50;99.90;;;;;;5099543;28;20270;-83
2023/05/19 10:03:13;;;;;;;7.75;2.80;;;20.60;99.90;;;;;;5107915;28;20204;-82
2023/05/19 10:05:41;;;;;;;7.55;2.83;;;20.40;99.90;;;;;;5102726;28;20205;-82
2023/05/19 10:08:10;;;;;;;8.02;2.40;;;20.40;99.90;;;;;;5104457;28;20200;-85
2023/05/19 10:10:38;;;;;;;6.63;2.38;;;20.60;99.90;;;;;;5101934;28;20197;-83
2023/05/19 10:13:05;;;;;;;7.28;2.75;;;20.80;99.90;;;;;;5091887;28;20761;-85
2023/05/19 10:15:33;;;;;;;5.70;2.92;;;20.90;99.90;;;;;;5103036;28;20205;-84
2023/05/19 10:18:02;;;;;;;5.95;2.78;;;20.80;99.90;;;;;;5099515;28;20279;-80
2023/05/19 10:20:31;;;;;;;7.57;2.95;;;20.80;99.90;;;;;;5096673;28;20197;-86
2023/05/19 10:22:58;;;;;;;7.47;3.42;;;20.50;99.90;;;;;;5099777;28;20196;-83
2023/05/19 10:25:25;;;;;;;6.75;3.08;;;20.20;99.90;;;;;;5096033;28;20200;-84
2023/05/19 10:27:56;;;;;;;8.90;3.35;;;20.60;99.90;;;;;;5104991;28;20650;-82
2023/05/19 10:30:27;;;;;;;6.72;2.97;;;20.80;99.90;;;;;;5083832;28;20295;-81
2023/05/19 10:32:56;;;;;;;7.05;2.85;;;20.90;99.90;;;;;;5104869;28;20311;-85
2023/05/19 10:35:53;;;;;;;4.68;2.50;;;20.90;99.90;;;;;;5101460;28;20207;-82
2023/05/19 10:38:31;;;;;;;9.95;3.38;;;21.00;99.90;;;;;;5083947;28;20628;-82
2023/05/19 10:41:05;;;;;;;6.90;2.75;;;20.90;99.90;;;;;;5097732;28;20273;-82
2023/05/19 10:43:51;;;;;;;5.40;3.05;;;20.70;99.90;;;;;;5094754;28;20192;-87
2023/05/19 10:46:18;;;;;;;4.88;2.80;;;20.60;99.90;;;;;;5095289;28;20634;-89
2023/05/19 10:48:46;;;;;;;7.57;3.00;;;20.30;99.90;;;;;;5078376;28;20201;-87
2023/05/19 10:51:15;;;;;;;8.43;3.03;;;20.30;99.90;;;;;;5093340;28;20235;-87
2023/05/19 10:53:45;;;;;;;8.40;2.95;;;20.40;99.90;;;;;;5115441;28;20241;-88
2023/05/19 10:56:27;;;;;;;7.32;2.50;;;20.60;99.90;;;;;;5114906;28;20478;-84
2023/05/19 10:58:54;;;;;;;6.97;3.13;;;20.50;99.90;;;;;;5113287;28;20206;-84
2023/05/19 11:01:23;;;;;;;6.18;2.25;;;20.90;99.90;;;;;;5095052;28;20588;-84
2023/05/19 11:03:52;;;;;;;8.82;3.30;;;20.90;99.90;;;;;;5108547;28;20838;-81
2023/05/19 11:06:34;;;;;;;7.68;3.00;;;21.10;99.90;;;;;;5115213;28;20196;-81
2023/05/19 11:09:03;;;;;;;4.72;3.00;;;21.00;99.90;;;;;;5112653;28;20208;-81
2023/05/19 11:11:45;;;;;;;10.43;3.15;;;21.00;99.90;;;;;;5114299;28;20192;-82
2023/05/19 11:14:13;;;;;;;7.38;3.30;;;20.90;99.90;;;;;;5111568;28;20282;-80
2023/05/19 11:16:41;;;;;;;4.70;2.65;;;20.90;99.90;;;;;;5112141;28;20203;-80
2023/05/19 11:19:09;;;;;;;8.00;3.45;;;20.80;99.90;;;;;;5113043;28;20200;-82
2023/05/19 11:21:49;;;;;;;6.88;3.03;;;21.30;99.90;;;;;;5114197;28;20196;-84
2023/05/19 11:24:34;;;;;;;8.23;3.00;;;21.50;99.90;;;;;;5113952;28;20196;-81
2023/05/19 11:27:26;;;;;;;8.02;3.53;;;21.30;99.90;;;;;;5097395;28;20212;-84
2023/05/19 11:29:54;;;;;;;10.65;3.50;;;21.30;99.90;;;;;;5093174;28;20189;-83
2023/05/19 11:32:25;;;;;;;6.70;3.20;;;21.00;99.90;;;;;;5093308;28;20644;-84
2023/05/19 11:34:54;;;;;;;8.88;3.28;;;20.90;99.90;;;;;;5093505;28;20741;-84
2023/05/19 11:37:23;;;;;;;4.78;3.28;;;20.80;99.90;;;;;;5092305;28;20696;-80
2023/05/19 11:39:50;;;;;;;8.43;3.50;;;20.70;99.90;;;;;;5106244;28;20280;-84
2023/05/19 11:42:18;;;;;;;6.90;3.45;;;20.70;99.90;;;;;;5113003;28;20194;-86
2023/05/19 11:44:45;;;;;;;9.57;3.65;;;20.70;99.90;;;;;;5113144;28;20196;-83
2023/05/19 11:47:12;;;;;;;5.97;2.80;;;20.40;99.90;;;;;;5112820;28;20201;-85
2023/05/19 11:49:43;;;;;;;4.85;3.58;;;20.30;99.90;;;;;;5106112;28;20244;-82
2023/05/19 11:52:10;;;;;;;7.60;3.72;;;20.00;99.90;;;;;;5091416;28;20228;-88
2023/05/19 11:54:40;;;;;;;6.10;3.13;;;19.90;99.90;;;;;;5091551;28;20228;-89
2023/05/19 11:57:08;;;;;;;5.93;2.53;;;20.30;99.90;;;;;;5090965;28;20201;-90
2023/05/19 11:59:37;;;;;;;6.30;3.08;;;20.50;99.90;;;;;;5082277;28;20729;-82
2023/05/19 12:02:18;;;;;;;6.25;3.20;;;20.60;99.90;;;;;;5090168;28;20284;-87
2023/05/19 12:04:46;;;;;;;8.60;2.92;;;20.60;99.90;;;;;;5079794;28;20208;-85
2023/05/19 12:07:16;;;;;;;4.97;2.80;;;20.50;99.90;;;;;;5093276;28;20556;-88
2023/05/19 12:09:45;;;;;;;5.45;2.30;;;20.70;99.90;;;;;;5093819;28;20210;-84
2023/05/19 12:12:14;;;;;;;5.45;2.17;;;20.90;99.90;;;;;;5093370;28;20298;-86
2023/05/19 12:14:41;;;;;;;6.72;2.95;;;20.90;99.90;;;;;;5093856;28;20204;-84
2023/05/19 12:17:13;;;;;;;6.32;2.42;;;21.10;99.90;;;;;;5093563;28;20284;-83
2023/05/19 12:19:41;;;;;;;5.75;2.55;;;21.50;99.90;;;;;;5103614;28;20257;-79
2023/05/19 12:22:08;;;;;;;6.30;2.55;;;21.40;99.90;;;;;;5113285;28;20199;-88
2023/05/19 12:24:36;;;;;;;5.97;2.85;;;21.40;99.90;;;;;;5113999;28;20204;-88
2023/05/19 12:27:11;;;;;;;6.05;2.58;;;21.40;99.90;;;;;;5094878;28;20251;-87
2023/05/19 12:29:38;;;;;;;5.03;2.17;;;21.30;99.90;;;;;;5086597;28;20274;-90
2023/05/19 12:32:06;;;;;;;5.85;2.55;;;21.20;99.90;;;;;;5073701;28;20229;-84
2023/05/19 12:34:36;;;;;;;10.25;3.17;;;21.20;99.90;;;;;;5073665;28;20289;-83
2023/05/19 12:37:03;;;;;;;5.65;2.50;;;21.20;99.90;;;;;;5072769;28;20198;-86
2023/05/19 12:39:31;;;;;;;4.30;2.13;;;20.90;99.90;;;;;;5072924;28;20197;-88
2023/05/19 12:42:02;;;;;;;5.07;2.10;;;20.70;99.90;;;;;;5093445;28;20208;-83
2023/05/19 12:44:31;;;;;;;5.90;2.28;;;20.80;99.90;;;;;;5086628;28;20209;-85
2023/05/19 12:46:58;;;;;;;5.05;2.45;;;20.80;99.90;;;;;;5110471;28;20216;-84
2023/05/19 12:49:25;;;;;;;6.28;2.75;;;20.70;99.90;;;;;;5073921;28;20297;-83
2023/05/19 12:51:52;;;;;;;3.67;2.22;;;20.50;99.90;;;;;;5092178;28;20193;-82
2023/05/19 12:54:20;;;;;;;4.35;2.78;;;20.70;99.90;;;;;;5095270;28;20288;-83
2023/05/19 12:56:51;;;;;;;4.85;2.60;;;21.00;99.90;;;;;;5112804;28;20762;-84